createdAt,value
2023-04-07T00:02:45.573Z,79.20
2023-04-07T00:05:48.199Z,79.30
2023-04-07T00:08:50.142Z,79.40
2023-04-07T00:11:52.510Z,79.60
2023-04-07T00:14:54.552Z,79.60
2023-04-07T00:17:56.555Z,79.60
2023-04-07T00:20:58.364Z,79.70
2023-04-07T00:24:00.187Z,79.80
2023-04-07T00:27:02.570Z,79.80
2023-04-07T00:30:06.045Z,79.80
2023-04-07T00:33:09.722Z,80.00
2023-04-07T00:36:11.792Z,80.10
2023-04-07T00:39:13.635Z,80.20
2023-04-07T00:42:15.502Z,80.10
2023-04-07T00:45:17.314Z,80.10
2023-04-07T00:48:19.183Z,80.30
2023-04-07T00:51:22.687Z,80.40
2023-04-07T00:54:25.120Z,80.30
2023-04-07T00:57:27.480Z,81.10
2023-04-07T01:00:31.773Z,80.60
2023-04-07T01:03:57.799Z,80.70
2023-04-07T01:07:06.779Z,80.40
2023-04-07T01:10:12.732Z,80.60
2023-04-07T01:13:28.581Z,81.10
2023-04-07T01:16:43.043Z,81.10
2023-04-07T01:19:51.653Z,81.10
2023-04-07T01:22:56.075Z,81.60
2023-04-07T01:26:18.973Z,81.80
2023-04-07T01:29:53.857Z,81.80
2023-04-07T01:32:58.217Z,81.40
2023-04-07T01:36:04.966Z,82.00
2023-04-07T01:39:08.517Z,81.90
2023-04-07T01:42:11.762Z,82.00
2023-04-07T01:45:16.198Z,82.20
2023-04-07T01:48:18.397Z,82.20
2023-04-07T01:51:22.237Z,82.50
2023-04-07T01:54:24.703Z,82.60
2023-04-07T01:57:26.726Z,82.60
2023-04-07T02:00:28.636Z,82.70
2023-04-07T02:03:44.647Z,82.90
2023-04-07T02:06:52.754Z,82.40
2023-04-07T02:09:59.197Z,82.80
2023-04-07T02:13:04.083Z,83.00
2023-04-07T02:16:07.385Z,83.10
2023-04-07T02:19:09.894Z,83.30
2023-04-07T02:22:12.341Z,83.50
2023-04-07T02:25:31.686Z,83.40
2023-04-07T02:28:33.534Z,83.10
2023-04-07T02:31:35.755Z,83.60
2023-04-07T02:34:37.647Z,83.70
2023-04-07T02:37:39.838Z,83.90
2023-04-07T02:40:41.802Z,83.90
2023-04-07T02:43:43.625Z,84.20
2023-04-07T02:46:45.496Z,84.20
2023-04-07T02:49:47.315Z,84.50
2023-04-07T02:52:50.201Z,84.40
2023-04-07T02:55:51.993Z,84.40
2023-04-07T02:58:53.978Z,84.40
2023-04-07T03:01:56.016Z,84.40
2023-04-07T03:04:58.386Z,84.40
2023-04-07T03:08:00.508Z,84.30
2023-04-07T03:11:02.363Z,84.30
2023-04-07T03:14:04.380Z,84.40
2023-04-07T03:17:06.311Z,84.50
2023-04-07T03:20:08.841Z,84.70
2023-04-07T03:23:10.982Z,84.70
2023-04-07T03:26:12.956Z,84.80
2023-04-07T03:29:14.920Z,84.80
2023-04-07T03:32:16.941Z,84.90
2023-04-07T03:35:18.749Z,84.80
2023-04-07T03:38:21.567Z,84.90
2023-04-07T03:41:23.672Z,85.10
2023-04-07T03:44:25.649Z,85.30
2023-04-07T03:47:27.659Z,85.50
2023-04-07T03:50:29.971Z,85.50
2023-04-07T03:53:32.333Z,85.50
2023-04-07T03:56:36.234Z,85.60
2023-04-07T03:59:38.383Z,85.50
2023-04-07T04:02:40.579Z,85.50
2023-04-07T04:05:42.958Z,85.40
2023-04-07T04:08:47.930Z,85.60
2023-04-07T04:11:49.974Z,85.70
2023-04-07T04:14:51.801Z,86.00
2023-04-07T04:17:53.620Z,85.80
2023-04-07T04:20:55.487Z,85.80
2023-04-07T04:23:57.761Z,85.90
2023-04-07T04:26:59.651Z,86.00
2023-04-07T04:30:01.765Z,86.10
2023-04-07T04:33:03.854Z,86.10
2023-04-07T04:36:06.210Z,86.20
2023-04-07T04:39:07.978Z,86.30
2023-04-07T04:42:09.958Z,86.50
2023-04-07T04:45:11.907Z,86.60
2023-04-07T04:48:13.872Z,86.60
2023-04-07T04:51:15.704Z,86.70
2023-04-07T04:54:17.794Z,86.90
2023-04-07T04:57:21.253Z,86.90
2023-04-07T05:00:23.216Z,87.00
2023-04-07T05:03:26.936Z,87.30
2023-04-07T05:06:29.266Z,87.50
2023-04-07T05:09:31.692Z,87.70
2023-04-07T05:12:33.699Z,87.70
2023-04-07T05:15:35.748Z,87.80
2023-04-07T05:18:37.663Z,87.90
2023-04-07T05:21:39.486Z,88.00
2023-04-07T05:24:41.657Z,88.30
2023-04-07T05:27:43.603Z,88.60
2023-04-07T05:30:45.668Z,88.90
2023-04-07T05:33:49.255Z,89.20
2023-04-07T05:36:52.307Z,89.40
2023-04-07T05:39:54.408Z,89.50
2023-04-07T05:42:56.556Z,89.70
2023-04-07T05:45:58.424Z,90.30
2023-04-07T05:49:07.124Z,90.00
2023-04-07T05:52:20.854Z,90.10
2023-04-07T05:55:22.888Z,90.20
2023-04-07T05:58:24.721Z,90.30
2023-04-07T06:01:27.969Z,90.40
2023-04-07T06:04:30.553Z,90.70
2023-04-07T06:07:32.507Z,91.10
2023-04-07T06:10:34.292Z,91.40
2023-04-07T06:13:36.306Z,91.60
2023-04-07T06:16:38.198Z,91.70
2023-04-07T06:19:40.229Z,91.80
2023-04-07T06:22:42.341Z,91.80
2023-04-07T06:25:45.088Z,91.90
2023-04-07T06:28:46.950Z,92.10
2023-04-07T06:31:48.805Z,92.10
2023-04-07T06:34:50.761Z,92.50
2023-04-07T06:37:52.813Z,92.40
2023-04-07T06:40:55.156Z,92.40
2023-04-07T06:43:57.345Z,92.40
2023-04-07T06:46:59.382Z,92.20
2023-04-07T06:50:01.298Z,92.00
2023-04-07T06:53:03.445Z,92.00
2023-04-07T06:56:12.270Z,91.80
2023-04-07T06:59:14.125Z,91.60
2023-04-07T07:02:16.119Z,92.00
2023-04-07T07:05:18.731Z,92.10
2023-04-07T07:08:20.883Z,92.20
2023-04-07T07:11:22.765Z,92.20
2023-04-07T07:14:24.591Z,92.30
2023-04-07T07:17:26.550Z,92.20
2023-04-07T07:20:28.476Z,92.20
2023-04-07T07:23:30.492Z,92.10
2023-04-07T07:26:32.398Z,92.10
2023-04-07T07:29:34.252Z,92.10
2023-04-07T07:32:36.602Z,92.20
2023-04-07T07:35:38.954Z,92.10
2023-04-07T07:38:41.299Z,92.10
2023-04-07T07:41:43.413Z,92.10
2023-04-07T07:44:47.272Z,92.20
2023-04-07T07:47:49.530Z,92.60
2023-04-07T07:50:53.108Z,92.20
2023-04-07T07:53:55.342Z,92.20
2023-04-07T07:56:57.457Z,92.40
2023-04-07T07:59:59.334Z,92.50
2023-04-07T08:03:01.507Z,92.70
2023-04-07T08:06:03.447Z,92.90
2023-04-07T08:09:06.370Z,93.40
2023-04-07T08:12:08.163Z,93.90
2023-04-07T08:15:10.441Z,94.40
2023-04-07T08:18:12.258Z,94.90
2023-04-07T08:21:14.413Z,95.80
2023-04-07T08:24:16.576Z,95.70
2023-04-07T08:27:18.589Z,95.90
2023-04-07T08:30:22.737Z,95.30
2023-04-07T08:33:25.724Z,94.80
2023-04-07T08:36:28.148Z,94.30
2023-04-07T08:39:30.034Z,93.30
2023-04-07T08:42:34.940Z,93.20
2023-04-07T08:45:42.332Z,91.90
2023-04-07T08:48:45.100Z,90.90
2023-04-07T08:51:48.766Z,91.30
2023-04-07T08:54:51.127Z,90.80
2023-04-07T08:57:54.388Z,90.40
2023-04-07T09:00:56.594Z,88.90
2023-04-07T09:03:59.234Z,89.40
2023-04-07T09:07:02.232Z,89.60
2023-04-07T09:10:05.068Z,89.30
2023-04-07T09:13:07.151Z,87.70
2023-04-07T09:16:09.323Z,88.00
2023-04-07T09:19:11.324Z,87.50
2023-04-07T09:22:14.432Z,87.30
2023-04-07T09:25:18.418Z,86.90
2023-04-07T09:28:20.227Z,85.20
2023-04-07T09:31:26.173Z,85.90
2023-04-07T09:34:31.181Z,84.30
2023-04-07T09:37:33.118Z,83.40
2023-04-07T09:40:36.675Z,85.20
2023-04-07T09:43:41.468Z,83.80
2023-04-07T09:46:52.899Z,82.30
2023-04-07T09:49:56.479Z,80.60
2023-04-07T09:52:58.481Z,83.60
2023-04-07T09:56:00.520Z,84.70
2023-04-07T09:59:03.100Z,84.40
2023-04-07T10:02:05.779Z,84.40
2023-04-07T10:05:08.583Z,84.50
2023-04-07T10:08:10.743Z,84.40
2023-04-07T10:11:12.647Z,84.70
2023-04-07T10:14:16.408Z,83.50
2023-04-07T10:17:20.616Z,82.60
2023-04-07T10:20:23.883Z,83.00
2023-04-07T10:23:43.865Z,81.10
2023-04-07T10:26:50.501Z,78.80
2023-04-07T10:29:53.574Z,80.70
2023-04-07T10:32:56.508Z,79.90
2023-04-07T10:36:06.627Z,80.60
2023-04-07T10:39:08.742Z,76.00
2023-04-07T10:42:41.719Z,80.80
2023-04-07T10:45:51.348Z,74.50
2023-04-07T10:49:14.052Z,78.80
2023-04-07T10:52:24.093Z,75.20
2023-04-07T10:55:31.974Z,76.30
2023-04-07T10:58:34.061Z,76.70
2023-04-07T11:01:36.775Z,78.80
2023-04-07T11:04:43.670Z,77.70
2023-04-07T11:07:55.327Z,76.70
2023-04-07T11:10:57.244Z,71.90
2023-04-07T11:13:59.099Z,76.70
2023-04-07T11:17:04.109Z,75.80
2023-04-07T11:20:06.694Z,75.30
2023-04-07T11:23:08.976Z,75.30
2023-04-07T11:26:12.337Z,75.20
2023-04-07T11:29:14.188Z,74.20
2023-04-07T11:32:16.923Z,74.20
2023-04-07T11:35:19.080Z,74.20
2023-04-07T11:38:21.749Z,74.20
2023-04-07T11:41:25.028Z,73.70
2023-04-07T11:44:26.811Z,72.60
2023-04-07T11:47:39.308Z,72.60
2023-04-07T11:50:42.728Z,69.00
2023-04-07T11:53:45.309Z,70.30
2023-04-07T11:56:47.997Z,70.50
2023-04-07T11:59:49.869Z,70.00
2023-04-07T12:02:52.658Z,70.10
2023-04-07T12:05:54.758Z,69.90
2023-04-07T12:08:56.795Z,69.50
2023-04-07T12:11:59.570Z,68.10
2023-04-07T12:15:01.896Z,67.50
2023-04-07T12:18:04.805Z,65.70
2023-04-07T12:21:06.669Z,65.20
2023-04-07T12:24:08.496Z,65.70
2023-04-07T12:27:10.454Z,65.90
2023-04-07T12:30:13.493Z,66.20
2023-04-07T12:33:15.782Z,65.70
2023-04-07T12:36:17.619Z,65.80
2023-04-07T12:39:19.677Z,66.10
2023-04-07T12:42:21.643Z,65.60
2023-04-07T12:45:23.567Z,65.30
2023-04-07T12:48:27.553Z,65.90
2023-04-07T12:51:29.564Z,65.60
2023-04-07T12:54:31.374Z,64.90
2023-04-07T12:57:33.882Z,65.00
2023-04-07T13:00:36.036Z,65.60
2023-04-07T13:03:38.766Z,64.80
2023-04-07T13:06:41.120Z,64.80
2023-04-07T13:09:46.129Z,64.40
2023-04-07T13:12:48.278Z,63.50
2023-04-07T13:15:50.401Z,63.20
2023-04-07T13:18:52.785Z,62.40
2023-04-07T13:21:54.918Z,61.60
2023-04-07T13:25:00.218Z,61.60
2023-04-07T13:28:02.730Z,61.60
2023-04-07T13:31:04.982Z,61.20
2023-04-07T13:34:06.830Z,60.50
2023-04-07T13:37:09.125Z,60.00
2023-04-07T13:40:12.720Z,60.30
2023-04-07T13:43:15.046Z,60.20
2023-04-07T13:46:28.008Z,60.20
2023-04-07T13:49:30.938Z,60.30
2023-04-07T13:52:35.480Z,60.40
2023-04-07T13:55:37.823Z,60.00
2023-04-07T13:58:39.548Z,60.40
2023-04-07T14:01:41.785Z,60.30
2023-04-07T14:04:43.944Z,60.70
2023-04-07T14:07:45.723Z,60.60
2023-04-07T14:10:47.576Z,60.50
2023-04-07T14:13:50.441Z,60.50
2023-04-07T14:16:52.701Z,60.20
2023-04-07T14:19:54.511Z,60.50
2023-04-07T14:22:56.360Z,59.90
2023-04-07T14:25:59.116Z,59.80
2023-04-07T14:29:00.984Z,59.90
2023-04-07T14:32:02.838Z,59.50
2023-04-07T14:35:05.033Z,59.50
2023-04-07T14:38:06.809Z,59.40
2023-04-07T14:41:10.418Z,59.20
2023-04-07T14:44:12.562Z,59.50
2023-04-07T14:47:14.412Z,59.30
2023-04-07T14:50:17.063Z,58.70
2023-04-07T14:53:18.922Z,58.60
2023-04-07T14:56:21.686Z,58.60
2023-04-07T14:59:24.081Z,58.00
2023-04-07T15:02:29.377Z,57.60
2023-04-07T15:05:31.630Z,57.50
2023-04-07T15:08:34.093Z,56.90
2023-04-07T15:11:36.136Z,56.90
2023-04-07T15:14:38.313Z,56.60
2023-04-07T15:17:43.906Z,56.00
2023-04-07T15:20:46.898Z,56.00
2023-04-07T15:23:48.943Z,55.90
2023-04-07T15:26:50.917Z,55.40
2023-04-07T15:29:53.057Z,55.10
2023-04-07T15:33:04.906Z,55.20
2023-04-07T15:36:09.123Z,53.30
2023-04-07T15:39:11.346Z,54.70
2023-04-07T15:42:13.470Z,55.40
2023-04-07T15:45:15.497Z,55.10
2023-04-07T15:48:17.994Z,54.60
2023-04-07T15:51:20.561Z,55.00
2023-04-07T15:54:22.383Z,55.00
2023-04-07T15:57:24.233Z,54.80
2023-04-07T16:00:27.498Z,55.00
2023-04-07T16:03:29.520Z,54.50
2023-04-07T16:06:31.832Z,54.20
2023-04-07T16:09:34.684Z,54.20
2023-04-07T16:12:37.895Z,54.10
2023-04-07T16:15:41.130Z,54.40
2023-04-07T16:18:43.626Z,54.10
2023-04-07T16:21:45.731Z,53.90
2023-04-07T16:24:47.632Z,54.10
2023-04-07T16:27:52.324Z,54.30
2023-04-07T16:30:54.367Z,54.20
2023-04-07T16:33:56.311Z,54.10
2023-04-07T16:36:58.209Z,54.20
2023-04-07T16:40:00.166Z,54.00
2023-04-07T16:43:02.180Z,53.80
2023-04-07T16:46:05.956Z,54.50
2023-04-07T16:49:07.800Z,54.50
2023-04-07T16:52:10.258Z,55.30
2023-04-07T16:55:12.502Z,56.10
2023-04-07T16:58:19.012Z,56.90
2023-04-07T17:01:21.410Z,56.90
2023-04-07T17:04:23.541Z,57.40
2023-04-07T17:07:25.426Z,57.60
2023-04-07T17:10:29.465Z,58.00
2023-04-07T17:13:31.771Z,58.30
2023-04-07T17:16:33.818Z,58.70
2023-04-07T17:19:36.083Z,59.00
2023-04-07T17:22:37.981Z,59.20
2023-04-07T17:25:40.280Z,59.50
2023-04-07T17:28:42.134Z,59.80
2023-04-07T17:31:44.279Z,60.10
2023-04-07T17:34:46.325Z,60.60
2023-04-07T17:37:48.607Z,61.20
2023-04-07T17:40:57.453Z,61.60
2023-04-07T17:43:59.297Z,61.30
2023-04-07T17:47:02.976Z,62.20
2023-04-07T17:50:05.233Z,62.40
2023-04-07T17:53:07.775Z,61.70
2023-04-07T17:56:09.758Z,60.00
2023-04-07T17:59:11.597Z,59.30
2023-04-07T18:02:13.510Z,58.70
2023-04-07T18:05:15.439Z,58.10
2023-04-07T18:08:17.333Z,58.10
2023-04-07T18:11:19.243Z,57.80
2023-04-07T18:14:21.055Z,57.50
2023-04-07T18:17:22.903Z,57.30
2023-04-07T18:20:24.822Z,57.00
2023-04-07T18:23:26.791Z,57.00
2023-04-07T18:26:28.936Z,57.00
2023-04-07T18:29:31.166Z,57.10
2023-04-07T18:32:33.126Z,57.20
2023-04-07T18:35:35.099Z,57.40
2023-04-07T18:38:38.304Z,57.50
2023-04-07T18:41:45.518Z,57.70
2023-04-07T18:44:47.551Z,56.90
2023-04-07T18:47:49.672Z,57.50
2023-04-07T18:50:53.015Z,57.60
2023-04-07T18:53:55.083Z,57.30
2023-04-07T18:56:58.049Z,57.50
2023-04-07T18:59:59.915Z,57.50
2023-04-07T19:03:01.963Z,57.60
2023-04-07T19:06:04.704Z,57.60
2023-04-07T19:09:06.651Z,57.50
2023-04-07T19:12:09.861Z,57.50
2023-04-07T19:15:11.961Z,57.40
2023-04-07T19:18:14.229Z,57.40
2023-04-07T19:21:16.581Z,57.40
2023-04-07T19:24:18.520Z,57.40
2023-04-07T19:27:20.386Z,57.40
2023-04-07T19:30:22.314Z,57.20
2023-04-07T19:33:24.167Z,57.40
2023-04-07T19:36:26.473Z,57.50
2023-04-07T19:39:28.372Z,57.50
2023-04-07T19:42:30.335Z,57.60
2023-04-07T19:45:32.304Z,57.90
2023-04-07T19:48:34.159Z,58.00
2023-04-07T19:51:36.098Z,57.70
2023-04-07T19:54:37.900Z,57.70
2023-04-07T19:57:43.194Z,57.60
2023-04-07T20:00:48.610Z,57.60
2023-04-07T20:03:51.108Z,58.00
2023-04-07T20:06:53.093Z,57.70
2023-04-07T20:09:55.154Z,58.00
2023-04-07T20:12:57.095Z,58.10
2023-04-07T20:15:59.374Z,58.20
2023-04-07T20:19:01.275Z,58.10
2023-04-07T20:22:04.596Z,58.30
2023-04-07T20:25:07.344Z,58.40
2023-04-07T20:28:09.208Z,58.30
2023-04-07T20:31:11.198Z,58.60
2023-04-07T20:34:13.062Z,58.60
2023-04-07T20:37:14.852Z,58.70
2023-04-07T20:40:17.095Z,58.60
2023-04-07T20:43:22.095Z,58.70
2023-04-07T20:46:24.146Z,58.50
2023-04-07T20:49:26.028Z,58.80
2023-04-07T20:52:28.166Z,58.90
2023-04-07T20:55:30.028Z,59.00
2023-04-07T20:58:32.005Z,58.80
2023-04-07T21:01:33.915Z,59.40
2023-04-07T21:04:36.888Z,59.10
2023-04-07T21:07:38.730Z,59.10
2023-04-07T21:10:40.775Z,59.20
2023-04-07T21:13:42.991Z,59.20
2023-04-07T21:16:44.829Z,59.30
2023-04-07T21:19:46.762Z,59.40
2023-04-07T21:22:48.610Z,59.30
2023-04-07T21:25:50.417Z,59.50
2023-04-07T21:28:52.744Z,59.60
2023-04-07T21:31:55.398Z,59.50
2023-04-07T21:34:57.290Z,59.70
2023-04-07T21:37:59.183Z,59.80
2023-04-07T21:41:01.226Z,60.90
2023-04-07T21:44:03.039Z,61.10
2023-04-07T21:47:04.919Z,61.20
2023-04-07T21:50:07.292Z,61.50
2023-04-07T21:53:10.426Z,61.70
2023-04-07T21:56:13.300Z,62.00
2023-04-07T21:59:18.722Z,62.40
2023-04-07T22:02:20.598Z,62.30
2023-04-07T22:05:22.542Z,63.00
2023-04-07T22:08:24.360Z,63.30
2023-04-07T22:11:27.676Z,63.60
2023-04-07T22:14:32.969Z,63.80
2023-04-07T22:17:35.689Z,64.00
2023-04-07T22:20:37.696Z,64.70
2023-04-07T22:23:39.562Z,64.80
2023-04-07T22:26:41.616Z,64.90
2023-04-07T22:29:43.560Z,65.70
2023-04-07T22:32:45.533Z,64.90
2023-04-07T22:35:48.075Z,64.90
2023-04-07T22:38:50.316Z,64.90
2023-04-07T22:41:52.482Z,64.90
2023-04-07T22:44:54.418Z,65.10
2023-04-07T22:47:56.374Z,65.50
2023-04-07T22:50:58.312Z,65.60
2023-04-07T22:54:00.477Z,65.70
2023-04-07T22:57:02.462Z,65.60
2023-04-07T23:00:05.210Z,65.80
2023-04-07T23:03:07.847Z,66.00
2023-04-07T23:06:09.813Z,66.20
2023-04-07T23:09:11.766Z,66.50
2023-04-07T23:12:13.598Z,66.70
2023-04-07T23:15:16.168Z,66.90
2023-04-07T23:18:18.099Z,66.90
2023-04-07T23:21:20.149Z,67.10
2023-04-07T23:24:21.948Z,67.10
2023-04-07T23:27:23.912Z,67.00
2023-04-07T23:30:26.349Z,67.20
2023-04-07T23:33:29.181Z,67.20
2023-04-07T23:36:31.642Z,67.40
2023-04-07T23:39:34.428Z,67.30
2023-04-07T23:42:36.906Z,67.60
2023-04-07T23:45:38.854Z,67.60
2023-04-07T23:48:41.724Z,67.70
2023-04-07T23:51:43.811Z,67.60
2023-04-07T23:54:45.764Z,67.90
2023-04-07T23:57:47.567Z,68.10
